sensor_id;sensor_type;location;lat;lon;timestamp;P1;durP1;ratioP1;P2;durP2;ratioP2
8317;SDS011;4196;48.926;8.964;2022-09-03T00:01:20;2.20;;;2.00;;
8317;SDS011;4196;48.926;8.964;2022-09-03T00:04:15;4.40;;;2.00;;
8317;SDS011;4196;48.926;8.964;2022-09-03T00:07:14;2.47;;;1.90;;
8317;SDS011;4196;48.926;8.964;2022-09-03T00:10:09;2.57;;;2.37;;
8317;SDS011;4196;48.926;8.964;2022-09-03T00:13:01;3.10;;;1.83;;
8317;SDS011;4196;48.926;8.964;2022-09-03T00:15:50;2.50;;;2.30;;
8317;SDS011;4196;48.926;8.964;2022-09-03T00:18:42;2.23;;;1.77;;
8317;SDS011;4196;48.926;8.964;2022-09-03T00:24:47;3.23;;;1.90;;
8317;SDS011;4196;48.926;8.964;2022-09-03T00:27:35;2.77;;;1.90;;
8317;SDS011;4196;48.926;8.964;2022-09-03T00:30:24;3.17;;;1.93;;
8317;SDS011;4196;48.926;8.964;2022-09-03T00:33:19;3.10;;;2.17;;
8317;SDS011;4196;48.926;8.964;2022-09-03T00:36:20;2.10;;;1.90;;
8317;SDS011;4196;48.926;8.964;2022-09-03T00:39:12;2.20;;;1.90;;
8317;SDS011;4196;48.926;8.964;2022-09-03T00:42:17;3.97;;;1.80;;
8317;SDS011;4196;48.926;8.964;2022-09-03T00:45:21;2.30;;;2.10;;
8317;SDS011;4196;48.926;8.964;2022-09-03T00:54:05;2.67;;;1.87;;
8317;SDS011;4196;48.926;8.964;2022-09-03T00:57:31;2.60;;;1.90;;
8317;SDS011;4196;48.926;8.964;2022-09-03T01:00:21;4.10;;;1.70;;
8317;SDS011;4196;48.926;8.964;2022-09-03T01:03:09;4.50;;;2.00;;
8317;SDS011;4196;48.926;8.964;2022-09-03T01:06:06;3.07;;;2.37;;
8317;SDS011;4196;48.926;8.964;2022-09-03T01:12:12;2.50;;;1.90;;
8317;SDS011;4196;48.926;8.964;2022-09-03T01:21:16;3.53;;;1.90;;
8317;SDS011;4196;48.926;8.964;2022-09-03T01:30:04;4.77;;;2.30;;
8317;SDS011;4196;48.926;8.964;2022-09-03T01:36:16;3.10;;;2.20;;
8317;SDS011;4196;48.926;8.964;2022-09-03T01:46:01;2.33;;;2.13;;
8317;SDS011;4196;48.926;8.964;2022-09-03T01:48:52;2.13;;;1.97;;
8317;SDS011;4196;48.926;8.964;2022-09-03T01:51:55;2.20;;;2.00;;
8317;SDS011;4196;48.926;8.964;2022-09-03T01:54:59;2.03;;;1.83;;
8317;SDS011;4196;48.926;8.964;2022-09-03T01:58:20;4.43;;;1.60;;
8317;SDS011;4196;48.926;8.964;2022-09-03T02:01:20;2.13;;;1.90;;
8317;SDS011;4196;48.926;8.964;2022-09-03T02:04:18;2.57;;;2.00;;
8317;SDS011;4196;48.926;8.964;2022-09-03T02:07:08;2.93;;;2.00;;
8317;SDS011;4196;48.926;8.964;2022-09-03T02:09:54;2.37;;;1.90;;
8317;SDS011;4196;48.926;8.964;2022-09-03T02:12:41;2.03;;;1.87;;
8317;SDS011;4196;48.926;8.964;2022-09-03T02:15:34;5.67;;;2.27;;
8317;SDS011;4196;48.926;8.964;2022-09-03T02:18:30;2.60;;;2.20;;
8317;SDS011;4196;48.926;8.964;2022-09-03T02:21:22;4.67;;;2.23;;
8317;SDS011;4196;48.926;8.964;2022-09-03T02:24:10;5.63;;;2.10;;
8317;SDS011;4196;48.926;8.964;2022-09-03T02:26:56;3.73;;;2.13;;
8317;SDS011;4196;48.926;8.964;2022-09-03T02:29:43;2.37;;;2.17;;
8317;SDS011;4196;48.926;8.964;2022-09-03T02:32:29;3.23;;;2.20;;
8317;SDS011;4196;48.926;8.964;2022-09-03T02:35:17;2.93;;;2.30;;
8317;SDS011;4196;48.926;8.964;2022-09-03T02:38:10;2.70;;;2.13;;
8317;SDS011;4196;48.926;8.964;2022-09-03T02:40:58;2.30;;;2.10;;
8317;SDS011;4196;48.926;8.964;2022-09-03T02:43:46;2.63;;;2.43;;
8317;SDS011;4196;48.926;8.964;2022-09-03T02:46:53;4.13;;;2.27;;
8317;SDS011;4196;48.926;8.964;2022-09-03T02:49:43;2.47;;;2.23;;
8317;SDS011;4196;48.926;8.964;2022-09-03T02:52:31;3.33;;;2.17;;
8317;SDS011;4196;48.926;8.964;2022-09-03T02:55:18;2.37;;;2.17;;
8317;SDS011;4196;48.926;8.964;2022-09-03T02:58:05;2.63;;;2.40;;
8317;SDS011;4196;48.926;8.964;2022-09-03T03:00:52;5.00;;;3.30;;
8317;SDS011;4196;48.926;8.964;2022-09-03T03:03:39;4.00;;;2.90;;
8317;SDS011;4196;48.926;8.964;2022-09-03T03:06:26;2.40;;;2.20;;
8317;SDS011;4196;48.926;8.964;2022-09-03T03:09:12;2.23;;;2.00;;
8317;SDS011;4196;48.926;8.964;2022-09-03T03:11:59;2.73;;;2.33;;
8317;SDS011;4196;48.926;8.964;2022-09-03T03:14:45;2.83;;;2.10;;
8317;SDS011;4196;48.926;8.964;2022-09-03T03:17:31;2.77;;;2.57;;
8317;SDS011;4196;48.926;8.964;2022-09-03T03:20:18;4.53;;;2.30;;
8317;SDS011;4196;48.926;8.964;2022-09-03T03:23:05;5.03;;;2.47;;
8317;SDS011;4196;48.926;8.964;2022-09-03T03:25:52;2.73;;;2.30;;
8317;SDS011;4196;48.926;8.964;2022-09-03T03:28:39;4.83;;;2.57;;
8317;SDS011;4196;48.926;8.964;2022-09-03T03:31:27;2.30;;;2.10;;
8317;SDS011;4196;48.926;8.964;2022-09-03T03:34:14;3.90;;;2.30;;
8317;SDS011;4196;48.926;8.964;2022-09-03T03:37:00;3.17;;;2.30;;
8317;SDS011;4196;48.926;8.964;2022-09-03T03:39:47;2.80;;;2.60;;
8317;SDS011;4196;48.926;8.964;2022-09-03T03:42:34;2.90;;;2.60;;
8317;SDS011;4196;48.926;8.964;2022-09-03T03:45:20;2.43;;;2.07;;
8317;SDS011;4196;48.926;8.964;2022-09-03T03:48:06;2.60;;;1.97;;
8317;SDS011;4196;48.926;8.964;2022-09-03T03:50:52;5.67;;;2.27;;
8317;SDS011;4196;48.926;8.964;2022-09-03T03:53:39;2.30;;;2.10;;
8317;SDS011;4196;48.926;8.964;2022-09-03T03:56:25;3.23;;;2.33;;
8317;SDS011;4196;48.926;8.964;2022-09-03T03:59:12;2.90;;;2.47;;
8317;SDS011;4196;48.926;8.964;2022-09-03T04:01:59;2.60;;;2.40;;
8317;SDS011;4196;48.926;8.964;2022-09-03T04:04:45;2.30;;;2.10;;
8317;SDS011;4196;48.926;8.964;2022-09-03T04:07:32;2.60;;;2.10;;
8317;SDS011;4196;48.926;8.964;2022-09-03T04:10:19;2.37;;;2.13;;
8317;SDS011;4196;48.926;8.964;2022-09-03T04:13:05;2.30;;;2.10;;
8317;SDS011;4196;48.926;8.964;2022-09-03T04:15:52;2.87;;;2.60;;
8317;SDS011;4196;48.926;8.964;2022-09-03T04:18:46;12.63;;;3.00;;
8317;SDS011;4196;48.926;8.964;2022-09-03T04:21:34;3.73;;;2.50;;
8317;SDS011;4196;48.926;8.964;2022-09-03T04:24:20;3.03;;;2.37;;
8317;SDS011;4196;48.926;8.964;2022-09-03T04:27:07;2.60;;;2.07;;
8317;SDS011;4196;48.926;8.964;2022-09-03T04:29:53;2.47;;;2.03;;
8317;SDS011;4196;48.926;8.964;2022-09-03T04:32:40;3.10;;;2.20;;
8317;SDS011;4196;48.926;8.964;2022-09-03T04:35:38;2.50;;;2.30;;
8317;SDS011;4196;48.926;8.964;2022-09-03T04:38:27;4.00;;;2.10;;
8317;SDS011;4196;48.926;8.964;2022-09-03T04:41:16;3.07;;;2.00;;
8317;SDS011;4196;48.926;8.964;2022-09-03T04:44:03;2.33;;;2.10;;
8317;SDS011;4196;48.926;8.964;2022-09-03T04:46:50;2.33;;;2.13;;
8317;SDS011;4196;48.926;8.964;2022-09-03T04:49:36;3.37;;;2.23;;
8317;SDS011;4196;48.926;8.964;2022-09-03T04:52:23;2.77;;;2.37;;
8317;SDS011;4196;48.926;8.964;2022-09-03T04:55:10;2.47;;;2.00;;
8317;SDS011;4196;48.926;8.964;2022-09-03T04:57:57;2.63;;;2.30;;
8317;SDS011;4196;48.926;8.964;2022-09-03T05:00:44;3.90;;;2.30;;
8317;SDS011;4196;48.926;8.964;2022-09-03T05:03:30;2.40;;;2.20;;
8317;SDS011;4196;48.926;8.964;2022-09-03T05:06:17;3.27;;;2.60;;
8317;SDS011;4196;48.926;8.964;2022-09-03T05:09:04;3.83;;;2.73;;
8317;SDS011;4196;48.926;8.964;2022-09-03T05:11:51;3.37;;;2.27;;
8317;SDS011;4196;48.926;8.964;2022-09-03T05:14:37;3.00;;;2.30;;
8317;SDS011;4196;48.926;8.964;2022-09-03T05:17:25;3.27;;;1.90;;
8317;SDS011;4196;48.926;8.964;2022-09-03T05:20:12;3.03;;;2.70;;
8317;SDS011;4196;48.926;8.964;2022-09-03T05:23:00;5.20;;;2.60;;
8317;SDS011;4196;48.926;8.964;2022-09-03T05:26:02;2.17;;;1.97;;
8317;SDS011;4196;48.926;8.964;2022-09-03T05:28:54;2.67;;;2.33;;
8317;SDS011;4196;48.926;8.964;2022-09-03T05:31:42;4.00;;;2.10;;
8317;SDS011;4196;48.926;8.964;2022-09-03T05:34:29;2.60;;;2.30;;
8317;SDS011;4196;48.926;8.964;2022-09-03T05:37:16;3.27;;;2.40;;
8317;SDS011;4196;48.926;8.964;2022-09-03T05:40:02;2.53;;;2.00;;
8317;SDS011;4196;48.926;8.964;2022-09-03T05:42:53;2.83;;;2.23;;
8317;SDS011;4196;48.926;8.964;2022-09-03T05:45:43;2.40;;;2.20;;
8317;SDS011;4196;48.926;8.964;2022-09-03T05:48:30;2.03;;;1.93;;
8317;SDS011;4196;48.926;8.964;2022-09-03T05:51:18;3.43;;;2.20;;
8317;SDS011;4196;48.926;8.964;2022-09-03T05:54:04;2.20;;;2.00;;
8317;SDS011;4196;48.926;8.964;2022-09-03T05:56:52;2.60;;;2.40;;
8317;SDS011;4196;48.926;8.964;2022-09-03T05:59:39;3.97;;;2.10;;
8317;SDS011;4196;48.926;8.964;2022-09-03T06:02:25;2.63;;;2.17;;
8317;SDS011;4196;48.926;8.964;2022-09-03T06:05:12;2.43;;;1.90;;
8317;SDS011;4196;48.926;8.964;2022-09-03T06:07:58;2.50;;;2.30;;
8317;SDS011;4196;48.926;8.964;2022-09-03T06:10:44;2.87;;;2.20;;
8317;SDS011;4196;48.926;8.964;2022-09-03T06:13:31;3.47;;;1.87;;
8317;SDS011;4196;48.926;8.964;2022-09-03T06:16:19;1.93;;;1.80;;
8317;SDS011;4196;48.926;8.964;2022-09-03T06:19:17;1.90;;;1.80;;
8317;SDS011;4196;48.926;8.964;2022-09-03T06:22:04;2.40;;;2.20;;
8317;SDS011;4196;48.926;8.964;2022-09-03T06:24:50;2.30;;;2.10;;
8317;SDS011;4196;48.926;8.964;2022-09-03T06:27:37;2.30;;;2.10;;
8317;SDS011;4196;48.926;8.964;2022-09-03T06:30:23;2.57;;;2.20;;
8317;SDS011;4196;48.926;8.964;2022-09-03T06:33:11;2.23;;;2.10;;
8317;SDS011;4196;48.926;8.964;2022-09-03T06:36:00;2.30;;;2.10;;
8317;SDS011;4196;48.926;8.964;2022-09-03T06:38:54;2.50;;;2.03;;
8317;SDS011;4196;48.926;8.964;2022-09-03T06:41:41;3.30;;;2.10;;
8317;SDS011;4196;48.926;8.964;2022-09-03T06:44:30;2.93;;;2.00;;
8317;SDS011;4196;48.926;8.964;2022-09-03T06:47:16;3.37;;;2.13;;
8317;SDS011;4196;48.926;8.964;2022-09-03T06:50:02;2.77;;;2.30;;
8317;SDS011;4196;48.926;8.964;2022-09-03T06:52:52;2.20;;;2.00;;
8317;SDS011;4196;48.926;8.964;2022-09-03T06:55:42;2.40;;;2.10;;
8317;SDS011;4196;48.926;8.964;2022-09-03T06:58:29;2.97;;;2.13;;
8317;SDS011;4196;48.926;8.964;2022-09-03T07:01:18;3.67;;;2.30;;
8317;SDS011;4196;48.926;8.964;2022-09-03T07:04:07;4.87;;;2.27;;
8317;SDS011;4196;48.926;8.964;2022-09-03T07:06:54;2.87;;;2.23;;
8317;SDS011;4196;48.926;8.964;2022-09-03T07:09:40;3.53;;;2.00;;
8317;SDS011;4196;48.926;8.964;2022-09-03T07:12:33;4.67;;;2.17;;
8317;SDS011;4196;48.926;8.964;2022-09-03T07:15:22;2.80;;;1.93;;
8317;SDS011;4196;48.926;8.964;2022-09-03T07:18:08;2.83;;;2.10;;
8317;SDS011;4196;48.926;8.964;2022-09-03T07:20:59;3.20;;;2.57;;
8317;SDS011;4196;48.926;8.964;2022-09-03T07:23:47;3.63;;;2.57;;
8317;SDS011;4196;48.926;8.964;2022-09-03T07:26:38;2.40;;;2.20;;
8317;SDS011;4196;48.926;8.964;2022-09-03T07:29:29;2.33;;;2.10;;
8317;SDS011;4196;48.926;8.964;2022-09-03T07:32:15;2.07;;;1.90;;
8317;SDS011;4196;48.926;8.964;2022-09-03T07:35:02;2.60;;;2.40;;
8317;SDS011;4196;48.926;8.964;2022-09-03T07:37:49;3.43;;;2.50;;
8317;SDS011;4196;48.926;8.964;2022-09-03T07:40:35;3.63;;;2.30;;
8317;SDS011;4196;48.926;8.964;2022-09-03T07:43:21;3.40;;;2.30;;
8317;SDS011;4196;48.926;8.964;2022-09-03T07:46:08;2.63;;;2.37;;
8317;SDS011;4196;48.926;8.964;2022-09-03T07:48:58;3.37;;;2.70;;
8317;SDS011;4196;48.926;8.964;2022-09-03T07:51:48;2.80;;;2.60;;
8317;SDS011;4196;48.926;8.964;2022-09-03T07:54:37;3.70;;;2.90;;
8317;SDS011;4196;48.926;8.964;2022-09-03T07:57:23;2.60;;;2.23;;
8317;SDS011;4196;48.926;8.964;2022-09-03T08:00:10;2.73;;;2.27;;
8317;SDS011;4196;48.926;8.964;2022-09-03T08:02:58;2.67;;;2.13;;
8317;SDS011;4196;48.926;8.964;2022-09-03T08:05:51;3.37;;;2.40;;
8317;SDS011;4196;48.926;8.964;2022-09-03T08:08:38;4.23;;;2.73;;
8317;SDS011;4196;48.926;8.964;2022-09-03T08:11:26;2.97;;;2.40;;
8317;SDS011;4196;48.926;8.964;2022-09-03T08:14:13;2.67;;;2.37;;
8317;SDS011;4196;48.926;8.964;2022-09-03T08:17:00;2.83;;;2.00;;
8317;SDS011;4196;48.926;8.964;2022-09-03T08:19:47;4.47;;;2.20;;
8317;SDS011;4196;48.926;8.964;2022-09-03T08:22:33;3.40;;;2.30;;
8317;SDS011;4196;48.926;8.964;2022-09-03T08:25:19;2.60;;;2.40;;
8317;SDS011;4196;48.926;8.964;2022-09-03T08:28:06;5.00;;;2.30;;
8317;SDS011;4196;48.926;8.964;2022-09-03T08:30:52;2.90;;;2.60;;
8317;SDS011;4196;48.926;8.964;2022-09-03T08:33:40;2.90;;;2.30;;
8317;SDS011;4196;48.926;8.964;2022-09-03T08:36:30;4.50;;;2.67;;
8317;SDS011;4196;48.926;8.964;2022-09-03T08:39:17;4.00;;;2.70;;
8317;SDS011;4196;48.926;8.964;2022-09-03T08:42:11;3.60;;;2.37;;
8317;SDS011;4196;48.926;8.964;2022-09-03T08:45:06;3.30;;;2.50;;
8317;SDS011;4196;48.926;8.964;2022-09-03T08:48:00;3.90;;;2.40;;
8317;SDS011;4196;48.926;8.964;2022-09-03T08:50:55;4.17;;;2.57;;
8317;SDS011;4196;48.926;8.964;2022-09-03T08:53:48;2.83;;;2.63;;
8317;SDS011;4196;48.926;8.964;2022-09-03T08:56:40;3.43;;;2.23;;
8317;SDS011;4196;48.926;8.964;2022-09-03T08:59:30;4.47;;;2.60;;
8317;SDS011;4196;48.926;8.964;2022-09-03T09:02:24;2.80;;;2.50;;
8317;SDS011;4196;48.926;8.964;2022-09-03T09:05:23;2.70;;;2.50;;
8317;SDS011;4196;48.926;8.964;2022-09-03T09:08:37;5.80;;;3.73;;
8317;SDS011;4196;48.926;8.964;2022-09-03T09:11:39;8.07;;;3.63;;
8317;SDS011;4196;48.926;8.964;2022-09-03T09:14:51;3.87;;;2.90;;
8317;SDS011;4196;48.926;8.964;2022-09-03T09:18:04;5.77;;;2.80;;
8317;SDS011;4196;48.926;8.964;2022-09-03T09:21:12;3.73;;;2.80;;
8317;SDS011;4196;48.926;8.964;2022-09-03T09:24:07;4.53;;;2.97;;
8317;SDS011;4196;48.926;8.964;2022-09-03T09:26:58;3.07;;;2.50;;
8317;SDS011;4196;48.926;8.964;2022-09-03T09:29:48;3.00;;;2.50;;
8317;SDS011;4196;48.926;8.964;2022-09-03T09:32:37;2.10;;;1.97;;
8317;SDS011;4196;48.926;8.964;2022-09-03T09:35:24;2.43;;;2.23;;
8317;SDS011;4196;48.926;8.964;2022-09-03T09:38:10;7.33;;;2.70;;
8317;SDS011;4196;48.926;8.964;2022-09-03T09:41:10;3.50;;;2.37;;
8317;SDS011;4196;48.926;8.964;2022-09-03T09:43:59;2.70;;;2.33;;
8317;SDS011;4196;48.926;8.964;2022-09-03T09:46:47;2.63;;;2.40;;
8317;SDS011;4196;48.926;8.964;2022-09-03T09:49:54;2.60;;;2.40;;
8317;SDS011;4196;48.926;8.964;2022-09-03T09:52:42;2.93;;;2.30;;
8317;SDS011;4196;48.926;8.964;2022-09-03T09:55:34;4.23;;;2.20;;
8317;SDS011;4196;48.926;8.964;2022-09-03T09:58:25;2.80;;;2.30;;
8317;SDS011;4196;48.926;8.964;2022-09-03T10:01:22;2.53;;;2.10;;
8317;SDS011;4196;48.926;8.964;2022-09-03T10:04:13;2.30;;;2.10;;
8317;SDS011;4196;48.926;8.964;2022-09-03T10:07:18;4.83;;;2.70;;
8317;SDS011;4196;48.926;8.964;2022-09-03T10:10:18;2.80;;;2.13;;
8317;SDS011;4196;48.926;8.964;2022-09-03T10:13:08;2.73;;;2.50;;
8317;SDS011;4196;48.926;8.964;2022-09-03T10:18:57;2.60;;;2.37;;
8317;SDS011;4196;48.926;8.964;2022-09-03T10:22:06;2.67;;;2.20;;
8317;SDS011;4196;48.926;8.964;2022-09-03T10:25:03;4.23;;;2.33;;
8317;SDS011;4196;48.926;8.964;2022-09-03T10:27:50;2.90;;;2.50;;
8317;SDS011;4196;48.926;8.964;2022-09-03T10:30:48;3.33;;;2.63;;
8317;SDS011;4196;48.926;8.964;2022-09-03T10:37:33;3.77;;;3.20;;
8317;SDS011;4196;48.926;8.964;2022-09-03T10:40:41;4.27;;;2.73;;
8317;SDS011;4196;48.926;8.964;2022-09-03T10:56:06;3.43;;;2.77;;
8317;SDS011;4196;48.926;8.964;2022-09-03T11:07:34;6.70;;;2.77;;
8317;SDS011;4196;48.926;8.964;2022-09-03T11:10:28;3.40;;;2.60;;
8317;SDS011;4196;48.926;8.964;2022-09-03T11:13:26;3.83;;;2.50;;
8317;SDS011;4196;48.926;8.964;2022-09-03T11:16:25;3.80;;;2.40;;
8317;SDS011;4196;48.926;8.964;2022-09-03T11:19:16;2.33;;;2.13;;
8317;SDS011;4196;48.926;8.964;2022-09-03T11:22:05;2.70;;;2.50;;
8317;SDS011;4196;48.926;8.964;2022-09-03T11:24:55;2.90;;;2.47;;
8317;SDS011;4196;48.926;8.964;2022-09-03T11:27:48;2.53;;;2.30;;
8317;SDS011;4196;48.926;8.964;2022-09-03T11:34:00;2.63;;;2.30;;
8317;SDS011;4196;48.926;8.964;2022-09-03T11:40:02;3.53;;;2.13;;
8317;SDS011;4196;48.926;8.964;2022-09-03T11:48:51;4.20;;;2.67;;
8317;SDS011;4196;48.926;8.964;2022-09-03T11:51:40;2.75;;;2.25;;
8317;SDS011;4196;48.926;8.964;2022-09-03T11:54:41;2.67;;;2.40;;
8317;SDS011;4196;48.926;8.964;2022-09-03T11:57:30;4.10;;;2.20;;
8317;SDS011;4196;48.926;8.964;2022-09-03T12:00:18;3.03;;;2.13;;
8317;SDS011;4196;48.926;8.964;2022-09-03T12:03:07;2.95;;;2.13;;
8317;SDS011;4196;48.926;8.964;2022-09-03T12:12:16;2.63;;;2.30;;
8317;SDS011;4196;48.926;8.964;2022-09-03T12:18:30;3.63;;;2.22;;
8317;SDS011;4196;48.926;8.964;2022-09-03T12:21:18;2.58;;;2.38;;
8317;SDS011;4196;48.926;8.964;2022-09-03T12:24:05;4.67;;;2.80;;
8317;SDS011;4196;48.926;8.964;2022-09-03T12:26:57;3.70;;;2.40;;
8317;SDS011;4196;48.926;8.964;2022-09-03T12:29:57;5.90;;;2.77;;
8317;SDS011;4196;48.926;8.964;2022-09-03T12:32:45;7.07;;;3.80;;
8317;SDS011;4196;48.926;8.964;2022-09-03T12:35:32;6.70;;;3.70;;
8317;SDS011;4196;48.926;8.964;2022-09-03T12:38:39;9.03;;;4.10;;
8317;SDS011;4196;48.926;8.964;2022-09-03T12:44:39;11.33;;;4.10;;
8317;SDS011;4196;48.926;8.964;2022-09-03T12:47:27;8.17;;;4.53;;
8317;SDS011;4196;48.926;8.964;2022-09-03T12:50:23;10.07;;;4.77;;
8317;SDS011;4196;48.926;8.964;2022-09-03T12:53:10;5.50;;;3.37;;
8317;SDS011;4196;48.926;8.964;2022-09-03T12:56:01;3.80;;;2.50;;
8317;SDS011;4196;48.926;8.964;2022-09-03T13:01:41;2.67;;;1.63;;
8317;SDS011;4196;48.926;8.964;2022-09-03T13:04:32;3.73;;;2.70;;
8317;SDS011;4196;48.926;8.964;2022-09-03T13:07:29;1.83;;;1.63;;
8317;SDS011;4196;48.926;8.964;2022-09-03T13:10:24;5.83;;;1.90;;
8317;SDS011;4196;48.926;8.964;2022-09-03T13:13:25;3.33;;;2.20;;
8317;SDS011;4196;48.926;8.964;2022-09-03T13:16:38;3.03;;;1.53;;
8317;SDS011;4196;48.926;8.964;2022-09-03T13:26:14;1.43;;;1.00;;
8317;SDS011;4196;48.926;8.964;2022-09-03T13:29:21;1.60;;;1.50;;
8317;SDS011;4196;48.926;8.964;2022-09-03T13:35:43;1.60;;;1.50;;
8317;SDS011;4196;48.926;8.964;2022-09-03T13:38:42;1.70;;;1.20;;
8317;SDS011;4196;48.926;8.964;2022-09-03T13:41:38;1.50;;;1.40;;
8317;SDS011;4196;48.926;8.964;2022-09-03T13:44:34;2.47;;;1.60;;
8317;SDS011;4196;48.926;8.964;2022-09-03T13:50:20;2.40;;;1.50;;
8317;SDS011;4196;48.926;8.964;2022-09-03T13:59:51;1.73;;;1.50;;
8317;SDS011;4196;48.926;8.964;2022-09-03T14:12:27;2.97;;;1.53;;
8317;SDS011;4196;48.926;8.964;2022-09-03T14:15:33;1.50;;;1.40;;
8317;SDS011;4196;48.926;8.964;2022-09-03T14:21:41;4.27;;;1.60;;
8317;SDS011;4196;48.926;8.964;2022-09-03T14:27:37;2.07;;;1.30;;
8317;SDS011;4196;48.926;8.964;2022-09-03T14:30:28;2.00;;;1.53;;
8317;SDS011;4196;48.926;8.964;2022-09-03T14:36:44;2.27;;;1.83;;
8317;SDS011;4196;48.926;8.964;2022-09-03T14:39:53;2.13;;;1.80;;
8317;SDS011;4196;48.926;8.964;2022-09-03T14:48:44;4.40;;;2.10;;
8317;SDS011;4196;48.926;8.964;2022-09-03T14:51:48;6.67;;;2.40;;
8317;SDS011;4196;48.926;8.964;2022-09-03T14:57:53;6.53;;;2.90;;
8317;SDS011;4196;48.926;8.964;2022-09-03T15:01:09;2.70;;;2.00;;
8317;SDS011;4196;48.926;8.964;2022-09-03T15:13:23;2.27;;;2.03;;
8317;SDS011;4196;48.926;8.964;2022-09-03T15:16:25;1.93;;;1.73;;
8317;SDS011;4196;48.926;8.964;2022-09-03T15:19:37;1.97;;;1.60;;
8317;SDS011;4196;48.926;8.964;2022-09-03T15:32:45;2.60;;;2.20;;
8317;SDS011;4196;48.926;8.964;2022-09-03T15:38:34;3.43;;;1.77;;
8317;SDS011;4196;48.926;8.964;2022-09-03T15:41:42;2.53;;;1.53;;
8317;SDS011;4196;48.926;8.964;2022-09-03T15:44:45;2.23;;;1.77;;
8317;SDS011;4196;48.926;8.964;2022-09-03T15:50:38;3.67;;;1.90;;
8317;SDS011;4196;48.926;8.964;2022-09-03T15:53:50;2.17;;;1.97;;
8317;SDS011;4196;48.926;8.964;2022-09-03T16:05:54;3.43;;;2.10;;
8317;SDS011;4196;48.926;8.964;2022-09-03T16:08:45;1.93;;;1.70;;
8317;SDS011;4196;48.926;8.964;2022-09-03T16:14:40;4.77;;;2.80;;
8317;SDS011;4196;48.926;8.964;2022-09-03T16:17:32;3.93;;;2.50;;
8317;SDS011;4196;48.926;8.964;2022-09-03T16:27:16;4.97;;;3.20;;
8317;SDS011;4196;48.926;8.964;2022-09-03T16:30:10;3.07;;;2.60;;
8317;SDS011;4196;48.926;8.964;2022-09-03T16:36:25;3.83;;;2.43;;
8317;SDS011;4196;48.926;8.964;2022-09-03T16:58:09;2.40;;;2.20;;
8317;SDS011;4196;48.926;8.964;2022-09-03T17:07:16;4.07;;;2.90;;
8317;SDS011;4196;48.926;8.964;2022-09-03T17:13:31;2.30;;;2.10;;
8317;SDS011;4196;48.926;8.964;2022-09-03T17:16:53;3.33;;;2.43;;
8317;SDS011;4196;48.926;8.964;2022-09-03T17:19:56;3.23;;;2.47;;
8317;SDS011;4196;48.926;8.964;2022-09-03T17:25:39;3.47;;;2.77;;
8317;SDS011;4196;48.926;8.964;2022-09-03T17:28:56;3.37;;;2.40;;
8317;SDS011;4196;48.926;8.964;2022-09-03T17:31:58;4.73;;;3.07;;
8317;SDS011;4196;48.926;8.964;2022-09-03T17:38:27;3.60;;;2.37;;
8317;SDS011;4196;48.926;8.964;2022-09-03T17:47:57;3.90;;;2.60;;
8317;SDS011;4196;48.926;8.964;2022-09-03T17:51:07;2.73;;;2.47;;
8317;SDS011;4196;48.926;8.964;2022-09-03T17:54:12;3.47;;;2.70;;
8317;SDS011;4196;48.926;8.964;2022-09-03T17:57:20;5.07;;;3.20;;
8317;SDS011;4196;48.926;8.964;2022-09-03T18:00:23;3.07;;;2.73;;
8317;SDS011;4196;48.926;8.964;2022-09-03T18:06:35;4.70;;;3.10;;
8317;SDS011;4196;48.926;8.964;2022-09-03T18:09:40;4.57;;;2.93;;
8317;SDS011;4196;48.926;8.964;2022-09-03T18:16:30;4.50;;;3.17;;
8317;SDS011;4196;48.926;8.964;2022-09-03T18:19:33;4.73;;;3.10;;
8317;SDS011;4196;48.926;8.964;2022-09-03T18:23:46;3.27;;;2.97;;
8317;SDS011;4196;48.926;8.964;2022-09-03T18:26:34;3.27;;;2.90;;
8317;SDS011;4196;48.926;8.964;2022-09-03T18:32:58;3.63;;;3.00;;
8317;SDS011;4196;48.926;8.964;2022-09-03T18:36:03;5.60;;;3.60;;
8317;SDS011;4196;48.926;8.964;2022-09-03T18:39:11;4.70;;;3.33;;
8317;SDS011;4196;48.926;8.964;2022-09-03T18:45:48;4.27;;;3.30;;
8317;SDS011;4196;48.926;8.964;2022-09-03T18:49:30;5.77;;;3.73;;
8317;SDS011;4196;48.926;8.964;2022-09-03T18:53:03;7.97;;;4.10;;
8317;SDS011;4196;48.926;8.964;2022-09-03T18:56:22;4.73;;;3.70;;
8317;SDS011;4196;48.926;8.964;2022-09-03T19:09:55;4.70;;;3.60;;
8317;SDS011;4196;48.926;8.964;2022-09-03T19:20:17;4.30;;;3.40;;
8317;SDS011;4196;48.926;8.964;2022-09-03T19:23:35;6.07;;;3.80;;
8317;SDS011;4196;48.926;8.964;2022-09-03T19:34:07;6.03;;;4.47;;
8317;SDS011;4196;48.926;8.964;2022-09-03T19:37:40;4.60;;;3.60;;
8317;SDS011;4196;48.926;8.964;2022-09-03T19:44:24;5.63;;;3.70;;
8317;SDS011;4196;48.926;8.964;2022-09-03T19:51:13;4.80;;;4.07;;
8317;SDS011;4196;48.926;8.964;2022-09-03T19:54:23;5.20;;;3.73;;
8317;SDS011;4196;48.926;8.964;2022-09-03T19:57:32;4.17;;;3.50;;
8317;SDS011;4196;48.926;8.964;2022-09-03T20:00:41;6.90;;;3.83;;
8317;SDS011;4196;48.926;8.964;2022-09-03T20:03:46;5.17;;;3.50;;
8317;SDS011;4196;48.926;8.964;2022-09-03T20:06:51;3.73;;;3.40;;
8317;SDS011;4196;48.926;8.964;2022-09-03T20:09:56;4.53;;;3.80;;
8317;SDS011;4196;48.926;8.964;2022-09-03T20:13:09;4.47;;;3.37;;
8317;SDS011;4196;48.926;8.964;2022-09-03T20:16:06;4.67;;;3.80;;
8317;SDS011;4196;48.926;8.964;2022-09-03T20:25:25;5.83;;;3.57;;
8317;SDS011;4196;48.926;8.964;2022-09-03T20:41:13;4.53;;;3.30;;
8317;SDS011;4196;48.926;8.964;2022-09-03T20:47:28;4.97;;;3.47;;
8317;SDS011;4196;48.926;8.964;2022-09-03T21:00:07;4.20;;;3.40;;
8317;SDS011;4196;48.926;8.964;2022-09-03T21:12:02;6.53;;;4.10;;
8317;SDS011;4196;48.926;8.964;2022-09-03T21:14:59;7.17;;;4.10;;
8317;SDS011;4196;48.926;8.964;2022-09-03T21:24:21;5.13;;;4.30;;
8317;SDS011;4196;48.926;8.964;2022-09-03T21:27:18;7.33;;;4.37;;
8317;SDS011;4196;48.926;8.964;2022-09-03T21:30:13;4.83;;;3.80;;
8317;SDS011;4196;48.926;8.964;2022-09-03T21:33:04;6.53;;;4.20;;
8317;SDS011;4196;48.926;8.964;2022-09-03T21:36:02;6.03;;;4.07;;
8317;SDS011;4196;48.926;8.964;2022-09-03T21:39:02;6.33;;;4.00;;
8317;SDS011;4196;48.926;8.964;2022-09-03T21:44:55;6.93;;;4.23;;
8317;SDS011;4196;48.926;8.964;2022-09-03T21:47:48;5.57;;;3.90;;
8317;SDS011;4196;48.926;8.964;2022-09-03T21:51:00;7.53;;;4.13;;
8317;SDS011;4196;48.926;8.964;2022-09-03T21:53:47;8.13;;;4.00;;
8317;SDS011;4196;48.926;8.964;2022-09-03T22:02:38;5.07;;;4.10;;
8317;SDS011;4196;48.926;8.964;2022-09-03T22:05:26;6.07;;;4.23;;
8317;SDS011;4196;48.926;8.964;2022-09-03T22:11:43;6.07;;;3.90;;
8317;SDS011;4196;48.926;8.964;2022-09-03T22:14:43;6.43;;;4.90;;
8317;SDS011;4196;48.926;8.964;2022-09-03T22:20:29;7.20;;;4.53;;
8317;SDS011;4196;48.926;8.964;2022-09-03T22:23:20;7.53;;;4.27;;
8317;SDS011;4196;48.926;8.964;2022-09-03T22:26:17;5.40;;;3.83;;
8317;SDS011;4196;48.926;8.964;2022-09-03T22:38:27;7.23;;;4.83;;
8317;SDS011;4196;48.926;8.964;2022-09-03T22:56:48;5.20;;;4.37;;
8317;SDS011;4196;48.926;8.964;2022-09-03T22:59:39;5.87;;;4.47;;
8317;SDS011;4196;48.926;8.964;2022-09-03T23:02:30;6.63;;;4.37;;
8317;SDS011;4196;48.926;8.964;2022-09-03T23:08:31;7.30;;;4.40;;
8317;SDS011;4196;48.926;8.964;2022-09-03T23:11:23;6.60;;;5.10;;
8317;SDS011;4196;48.926;8.964;2022-09-03T23:14:15;9.00;;;4.77;;
8317;SDS011;4196;48.926;8.964;2022-09-03T23:17:07;6.27;;;4.17;;
8317;SDS011;4196;48.926;8.964;2022-09-03T23:20:03;5.63;;;4.10;;
8317;SDS011;4196;48.926;8.964;2022-09-03T23:22:51;5.13;;;4.43;;
8317;SDS011;4196;48.926;8.964;2022-09-03T23:25:45;5.33;;;4.50;;
8317;SDS011;4196;48.926;8.964;2022-09-03T23:28:36;5.17;;;4.10;;
8317;SDS011;4196;48.926;8.964;2022-09-03T23:31:26;9.63;;;4.90;;
8317;SDS011;4196;48.926;8.964;2022-09-03T23:34:12;6.30;;;4.47;;
8317;SDS011;4196;48.926;8.964;2022-09-03T23:37:02;5.03;;;4.10;;
8317;SDS011;4196;48.926;8.964;2022-09-03T23:47:01;6.27;;;4.40;;
